Double Branches, Georgia
Current Conditions -  °F | °C
As of 12:55 PM on Thursday 30 Oct 2014 (Local Time) from KHQU Reporting Station
Clear Clear  
Wind Chill: 69°   Ceiling: Unl
Heat Index: 69°   Visibility: 10mi
Dew Point: 51°   Wind: 5mph
Humidity: 53%   Direction: 40°NE
Pressure: 30.08"   Gusts: NA
Location:  33.7816°N, 82.4511°W
Report Text: KHQU 301655Z AUTO 04004KT 10SM CLR 20/10 A3008 RMK AO1 T02040104
Loading
Personal Weather Stations






























Interactive Weather Map
Tropical Storm Tracking
New forecast layout! Learn more

10-Day Weather Forecast

Advertisements
Track Severe Weather on mobile